LZKZ

Details ICAO LZKZ (KSC)
Name KOSICE
Region Slovakia
Timezone Europe/Bratislava (UTC+2.0)
Plans Departing 261
Arriving 247
Stats Elevation 754 ft / 230 m (AMSL)
Location 48.663000° 21.241200°
Runways 1
Magnetic Variation 5.430° E
Sunrise 2018-10-16 04:57:17 UTC / 2018-10-16 06:57:17 Local
Sunset 2018-10-16 15:46:16 UTC / 2018-10-16 17:46:16 Local
Advertisement - Login to hide

Runways

ID Width Length Bearing (true/mag) Surface Threshold Overrun Markings Lighting
01 148 ft / 45 m 10,177 ft / 3,102 m 13.04° / 7.61° ASPHALT 0 ft / 0 m 0 ft / 0 m UK-PREC-APP CENTERLINE EDGE THRESHOLD ALSF-II TDZ REIL-OMNI
19 148 ft / 45 m 10,177 ft / 3,102 m 193.05° / 187.62° ASPHALT 0 ft / 0 m 0 ft / 0 m UK-PREC-APP CENTERLINE EDGE THRESHOLD SSALR

Approach Navaids

Runway Type Ident Frequency Range Bearing (true/mag) Slope Elevation
01 OM OM - - 13.00° / 7.57° - 755 ft / 230 m (AMSL)
01 LOC-ILS KE 109.50 MHz 18 nm / 33 km 13.05° / 7.62° - 754 ft / 230 m (AMSL)
01 MM MM - - 13.00° / 7.57° - 755 ft / 230 m (AMSL)
01 GS KE 109.50 MHz 10 nm / 19 km 13.05° / 7.62° 3.00° 754 ft / 230 m (AMSL)

Map

Weather


0- 5 10 15 20 25 30 35+ Temperature / °C

Clouds and Precipitation
Forecast for 2018-10-16 00:00 UTC. Updated 6 hours ago

Ground ~20,000 ft ~40,000 ft Winds

METAR

LZKZ 160300Z 09004KT 050V110 CAVOK 05/02 Q1024

TAF

Not found

Frequencies

Approach 119.85 MHz
Tower 120.40 MHz
Warning: Do not use this data for real-world aviation or navigation. No guarantee of current accuracy is given.